Time;durP1;ratioP1;P1;durP2;ratioP2;P2;SDS_P1;SDS_P2;PMS_P1;PMS_P2;Temp;Humidity;BMP_temperature;BMP_pressure;BME280_temperature;BME280_humidity;BME280_pressure;Samples;Min_cycle;Max_cycle;Signal;HPM_P1;HPM_P2
2021/09/09 00:01:01;;;;;;;15.00;12.32;;;;;;;;;;5034330;28;20041;-44
2021/09/09 00:03:29;;;;;;;18.05;12.02;;;;;;;;;;5033325;28;20052;-41
2021/09/09 00:05:57;;;;;;;15.00;12.70;;;;;;;;;;5046127;28;20049;-44
2021/09/09 00:08:24;;;;;;;15.68;13.45;;;;;;;;;;5034558;28;20124;-41
2021/09/09 00:10:51;;;;;;;17.10;13.50;;;;;;;;;;5034477;28;20045;-42
2021/09/09 00:13:19;;;;;;;16.80;13.70;;;;;;;;;;5033958;28;20125;-41
2021/09/09 00:15:46;;;;;;;16.75;13.23;;;;;;;;;;5034395;28;20057;-42
2021/09/09 00:18:14;;;;;;;14.55;12.90;;;;;;;;;;5034604;28;20042;-43
2021/09/09 00:20:41;;;;;;;15.77;13.77;;;;;;;;;;5034217;28;20056;-42
2021/09/09 00:23:10;;;;;;;20.30;14.40;;;;;;;;;;5033599;28;20053;-42
2021/09/09 00:25:37;;;;;;;16.83;13.40;;;;;;;;;;5036105;28;20530;-44
2021/09/09 00:28:04;;;;;;;15.85;12.13;;;;;;;;;;5044076;28;20045;-44
2021/09/09 00:30:32;;;;;;;15.95;13.73;;;;;;;;;;5043598;28;20047;-42
2021/09/09 00:33:08;;;;;;;18.63;14.45;;;;;;;;;;5045567;28;20049;-42
2021/09/09 00:35:36;;;;;;;19.95;15.20;;;;;;;;;;5039813;28;20049;-41
2021/09/09 00:38:04;;;;;;;18.25;13.73;;;;;;;;;;5033483;28;20124;-41
2021/09/09 00:40:32;;;;;;;16.30;14.38;;;;;;;;;;5034109;28;20056;-43
2021/09/09 00:42:58;;;;;;;15.77;13.55;;;;;;;;;;5033635;28;20514;-43
2021/09/09 00:45:25;;;;;;;16.50;13.50;;;;;;;;;;5034566;28;20475;-41
2021/09/09 00:47:52;;;;;;;15.35;12.85;;;;;;;;;;5033520;28;20128;-44
2021/09/09 00:50:19;;;;;;;15.93;12.82;;;;;;;;;;5034637;28;20510;-42
2021/09/09 00:52:50;;;;;;;14.23;12.55;;;;;;;;;;5050880;28;20425;-44
2021/09/09 00:55:18;;;;;;;14.98;12.60;;;;;;;;;;5053683;28;20049;-43
2021/09/09 00:57:45;;;;;;;15.20;13.13;;;;;;;;;;5053465;28;20076;-42
2021/09/09 01:00:12;;;;;;;15.73;13.18;;;;;;;;;;5040994;28;20069;-43
2021/09/09 01:02:39;;;;;;;17.27;13.65;;;;;;;;;;5033313;28;20052;-42
2021/09/09 01:05:07;;;;;;;19.38;14.98;;;;;;;;;;5033178;28;20037;-42
2021/09/09 01:07:33;;;;;;;18.13;13.25;;;;;;;;;;5033215;28;20064;-45
2021/09/09 01:10:00;;;;;;;15.98;13.25;;;;;;;;;;5033397;28;20045;-44
2021/09/09 01:12:27;;;;;;;15.00;12.95;;;;;;;;;;5032879;28;20030;-45
2021/09/09 01:14:54;;;;;;;16.17;13.95;;;;;;;;;;5032844;28;20042;-45
2021/09/09 01:17:20;;;;;;;17.98;13.88;;;;;;;;;;5032185;28;20076;-43
2021/09/09 01:19:47;;;;;;;16.15;12.93;;;;;;;;;;5033187;28;20044;-43
2021/09/09 01:22:14;;;;;;;15.85;13.90;;;;;;;;;;5032916;28;20065;-44
2021/09/09 01:24:40;;;;;;;16.98;14.25;;;;;;;;;;5032677;28;20049;-44
2021/09/09 01:27:17;;;;;;;21.17;14.93;;;;;;;;;;5033006;28;20069;-43
2021/09/09 01:29:44;;;;;;;18.20;14.27;;;;;;;;;;5043926;28;20048;-46
2021/09/09 01:32:11;;;;;;;16.65;14.18;;;;;;;;;;5052486;28;20037;-44
2021/09/09 01:34:39;;;;;;;17.23;14.55;;;;;;;;;;5045148;28;20046;-44
2021/09/09 01:37:06;;;;;;;18.73;14.93;;;;;;;;;;5032638;28;20054;-42
2021/09/09 01:39:32;;;;;;;18.23;14.68;;;;;;;;;;5032674;28;20068;-44
2021/09/09 01:41:59;;;;;;;15.80;14.07;;;;;;;;;;5032549;28;20045;-43
2021/09/09 01:44:30;;;;;;;19.30;14.48;;;;;;;;;;5031974;28;20037;-42
2021/09/09 01:46:57;;;;;;;17.45;13.80;;;;;;;;;;5032416;28;20133;-42
2021/09/09 01:49:24;;;;;;;16.35;14.35;;;;;;;;;;5031124;28;20053;-44
2021/09/09 01:51:51;;;;;;;18.52;14.52;;;;;;;;;;5032046;28;20034;-45
2021/09/09 01:54:18;;;;;;;17.50;14.48;;;;;;;;;;5030899;28;20045;-42
2021/09/09 01:56:45;;;;;;;16.80;13.48;;;;;;;;;;5032312;28;20045;-43
2021/09/09 01:59:11;;;;;;;19.75;14.65;;;;;;;;;;5031793;28;20049;-43
2021/09/09 02:01:38;;;;;;;16.55;14.25;;;;;;;;;;5033045;28;20462;-42
2021/09/09 02:04:05;;;;;;;20.70;15.10;;;;;;;;;;5031963;28;20041;-45
2021/09/09 02:06:33;;;;;;;18.83;14.27;;;;;;;;;;5032320;28;20051;-46
2021/09/09 02:09:00;;;;;;;18.77;14.25;;;;;;;;;;5031962;28;20128;-44
2021/09/09 02:11:27;;;;;;;17.73;15.25;;;;;;;;;;5032083;28;20033;-43
2021/09/09 02:13:54;;;;;;;17.92;15.20;;;;;;;;;;5031419;28;20067;-44
2021/09/09 02:16:20;;;;;;;18.90;14.07;;;;;;;;;;5031002;28;20421;-43
2021/09/09 02:18:47;;;;;;;18.17;15.35;;;;;;;;;;5032002;28;20053;-41
2021/09/09 02:21:14;;;;;;;17.27;14.27;;;;;;;;;;5031638;28;20052;-45
2021/09/09 02:23:41;;;;;;;17.50;14.55;;;;;;;;;;5031455;28;20406;-45
2021/09/09 02:26:08;;;;;;;19.65;14.80;;;;;;;;;;5032024;28;20517;-42
2021/09/09 02:28:34;;;;;;;17.63;15.07;;;;;;;;;;5046848;28;20077;-44
2021/09/09 02:31:01;;;;;;;16.58;14.38;;;;;;;;;;5045012;28;20033;-43
2021/09/09 02:33:28;;;;;;;17.70;14.60;;;;;;;;;;5051470;28;20471;-42
2021/09/09 02:35:55;;;;;;;16.15;14.23;;;;;;;;;;5034070;28;20041;-44
2021/09/09 02:38:22;;;;;;;16.65;14.38;;;;;;;;;;5031767;28;20045;-45
2021/09/09 02:40:50;;;;;;;16.27;13.77;;;;;;;;;;5050866;28;20395;-42
2021/09/09 02:43:17;;;;;;;17.92;14.25;;;;;;;;;;5051110;28;20094;-43
2021/09/09 02:45:44;;;;;;;19.25;14.85;;;;;;;;;;5051542;28;20067;-47
2021/09/09 02:48:11;;;;;;;18.75;14.65;;;;;;;;;;5051587;28;20486;-43
2021/09/09 02:50:38;;;;;;;17.55;14.80;;;;;;;;;;5051309;28;20128;-43
2021/09/09 02:53:04;;;;;;;16.85;14.18;;;;;;;;;;5051100;28;20134;-42
2021/09/09 02:55:31;;;;;;;17.30;13.68;;;;;;;;;;5051508;28;20048;-43
2021/09/09 02:57:58;;;;;;;18.15;14.93;;;;;;;;;;5053888;28;20136;-46
2021/09/09 03:00:25;;;;;;;16.15;14.30;;;;;;;;;;5071589;28;20102;-42
2021/09/09 03:02:51;;;;;;;17.27;13.60;;;;;;;;;;5051315;28;20084;-43
2021/09/09 03:05:18;;;;;;;17.40;13.27;;;;;;;;;;5050847;28;20502;-45
2021/09/09 03:07:45;;;;;;;18.30;13.38;;;;;;;;;;5051276;28;20056;-43
2021/09/09 03:10:12;;;;;;;16.55;13.27;;;;;;;;;;5051421;28;20478;-42
2021/09/09 03:12:39;;;;;;;18.25;13.30;;;;;;;;;;5051034;28;20145;-43
2021/09/09 03:15:06;;;;;;;16.38;14.10;;;;;;;;;;5050921;28;20049;-42
2021/09/09 03:17:33;;;;;;;19.25;13.43;;;;;;;;;;5051266;28;20405;-44
2021/09/09 03:20:00;;;;;;;16.58;14.38;;;;;;;;;;5051274;28;20044;-42
2021/09/09 03:22:26;;;;;;;18.25;14.18;;;;;;;;;;5050841;28;20037;-45
2021/09/09 03:24:53;;;;;;;15.05;12.98;;;;;;;;;;5050915;28;20414;-42
2021/09/09 03:27:21;;;;;;;17.70;13.80;;;;;;;;;;5052400;28;20060;-41
2021/09/09 03:29:48;;;;;;;18.55;14.57;;;;;;;;;;5061320;28;20123;-45
2021/09/09 03:32:15;;;;;;;15.88;13.05;;;;;;;;;;5053005;28;20036;-45
2021/09/09 03:34:41;;;;;;;17.65;12.85;;;;;;;;;;5063142;28;20055;-46
2021/09/09 03:37:08;;;;;;;20.15;12.98;;;;;;;;;;5051035;28;20121;-44
2021/09/09 03:39:35;;;;;;;16.05;13.15;;;;;;;;;;5050929;28;20044;-44
2021/09/09 03:42:02;;;;;;;18.42;13.73;;;;;;;;;;5036029;28;20051;-43
2021/09/09 03:44:29;;;;;;;19.65;13.73;;;;;;;;;;5054285;28;20451;-42
2021/09/09 03:46:56;;;;;;;16.35;13.02;;;;;;;;;;5054793;28;20071;-43
2021/09/09 03:49:22;;;;;;;16.00;13.57;;;;;;;;;;5054572;28;20049;-44
2021/09/09 03:51:49;;;;;;;16.42;13.18;;;;;;;;;;5054418;28;20399;-44
2021/09/09 03:54:16;;;;;;;17.33;13.45;;;;;;;;;;5054035;28;20045;-46
2021/09/09 03:56:42;;;;;;;17.77;14.82;;;;;;;;;;5055134;28;20142;-43
2021/09/09 03:59:09;;;;;;;19.25;14.77;;;;;;;;;;5036538;28;20045;-44
2021/09/09 04:01:36;;;;;;;18.58;13.73;;;;;;;;;;5054195;28;20132;-44
2021/09/09 04:04:03;;;;;;;16.20;13.57;;;;;;;;;;5053869;28;20064;-43
2021/09/09 04:06:30;;;;;;;16.63;13.85;;;;;;;;;;5054250;28;20037;-42
2021/09/09 04:08:57;;;;;;;14.48;12.93;;;;;;;;;;5054315;28;20124;-44
2021/09/09 04:11:23;;;;;;;16.58;14.07;;;;;;;;;;5054241;28;20120;-43
2021/09/09 04:13:50;;;;;;;16.52;13.65;;;;;;;;;;5053781;28;20049;-45
2021/09/09 04:16:18;;;;;;;17.42;13.45;;;;;;;;;;5054258;28;20049;-42
2021/09/09 04:18:45;;;;;;;18.15;13.18;;;;;;;;;;5054092;28;20498;-44
2021/09/09 04:21:12;;;;;;;16.40;14.00;;;;;;;;;;5053879;28;20057;-43
2021/09/09 04:23:38;;;;;;;19.75;13.55;;;;;;;;;;5053792;28;20044;-42
2021/09/09 04:26:05;;;;;;;17.83;13.25;;;;;;;;;;5036279;28;20037;-45
2021/09/09 04:28:32;;;;;;;15.13;11.98;;;;;;;;;;5055562;28;20405;-43
2021/09/09 04:30:59;;;;;;;15.25;12.57;;;;;;;;;;5072650;28;20555;-44
2021/09/09 04:33:25;;;;;;;15.45;12.82;;;;;;;;;;5053461;28;20124;-45
2021/09/09 04:35:52;;;;;;;16.20;13.98;;;;;;;;;;5053549;28;20045;-44
2021/09/09 04:38:19;;;;;;;15.27;13.10;;;;;;;;;;5036042;28;20041;-42
2021/09/09 04:40:46;;;;;;;16.67;12.57;;;;;;;;;;5054063;28;20110;-42
2021/09/09 04:43:12;;;;;;;16.20;12.82;;;;;;;;;;5053083;28;20094;-48
2021/09/09 04:45:39;;;;;;;15.35;12.70;;;;;;;;;;5053881;28;20072;-45
2021/09/09 04:48:06;;;;;;;17.85;13.77;;;;;;;;;;5053521;28;20064;-43
2021/09/09 04:50:33;;;;;;;15.68;12.40;;;;;;;;;;5053575;28;20040;-42
2021/09/09 04:53:00;;;;;;;15.82;12.27;;;;;;;;;;5053287;28;20510;-43
2021/09/09 04:55:26;;;;;;;14.68;12.20;;;;;;;;;;5054105;28;20123;-45
2021/09/09 04:57:53;;;;;;;19.50;14.73;;;;;;;;;;5054428;28;20068;-42
2021/09/09 05:00:20;;;;;;;17.15;14.05;;;;;;;;;;5053781;28;20642;-43
2021/09/09 05:02:47;;;;;;;14.85;12.20;;;;;;;;;;5053492;28;20072;-42
2021/09/09 05:05:14;;;;;;;18.35;14.10;;;;;;;;;;5052831;28;20043;-43
2021/09/09 05:07:41;;;;;;;15.30;12.70;;;;;;;;;;5053383;28;20048;-43
2021/09/09 05:10:08;;;;;;;16.67;12.50;;;;;;;;;;5053281;28;20045;-43
2021/09/09 05:12:35;;;;;;;14.98;11.90;;;;;;;;;;5053232;28;20091;-42
2021/09/09 05:15:02;;;;;;;17.60;12.05;;;;;;;;;;5035862;28;20056;-42
2021/09/09 05:17:29;;;;;;;15.10;12.02;;;;;;;;;;5053867;28;20116;-42
2021/09/09 05:19:56;;;;;;;16.98;12.23;;;;;;;;;;5053788;28;20045;-43
2021/09/09 05:22:23;;;;;;;17.27;12.00;;;;;;;;;;5066650;22;20036;-49
2021/09/09 05:24:50;;;;;;;17.77;12.10;;;;;;;;;;5070034;28;20055;-50
2021/09/09 05:27:16;;;;;;;16.88;12.57;;;;;;;;;;5072777;28;20136;-47
2021/09/09 05:29:44;;;;;;;15.40;11.68;;;;;;;;;;5072952;28;20044;-50
2021/09/09 05:32:11;;;;;;;16.38;11.07;;;;;;;;;;5041527;28;20041;-50
2021/09/09 05:34:38;;;;;;;14.15;11.27;;;;;;;;;;5054531;28;20051;-48
2021/09/09 05:37:05;;;;;;;13.52;10.85;;;;;;;;;;5059702;28;20055;-47
2021/09/09 05:39:32;;;;;;;15.95;11.25;;;;;;;;;;5072419;28;20075;-47
2021/09/09 05:42:02;;;;;;;13.73;9.93;;;;;;;;;;5072013;28;20063;-49
2021/09/09 05:44:29;;;;;;;18.35;10.75;;;;;;;;;;5061753;28;20477;-49
2021/09/09 05:46:56;;;;;;;15.45;9.68;;;;;;;;;;5072105;28;20494;-47
2021/09/09 05:49:23;;;;;;;11.85;10.02;;;;;;;;;;5048493;28;20040;-51
2021/09/09 05:51:50;;;;;;;14.65;9.70;;;;;;;;;;5069124;28;20068;-48
2021/09/09 05:54:17;;;;;;;12.88;9.55;;;;;;;;;;5070940;28;20044;-46
2021/09/09 05:56:44;;;;;;;13.18;9.55;;;;;;;;;;5069843;28;20114;-48
2021/09/09 05:59:10;;;;;;;16.52;9.55;;;;;;;;;;5068938;28;20098;-47
2021/09/09 06:01:37;;;;;;;14.18;9.23;;;;;;;;;;5053090;28;20159;-49
2021/09/09 06:04:05;;;;;;;15.10;8.75;;;;;;;;;;5032897;28;20482;-48
2021/09/09 06:06:32;;;;;;;14.07;9.65;;;;;;;;;;5037458;28;20074;-46
2021/09/09 06:09:00;;;;;;;10.95;9.20;;;;;;;;;;5054133;28;20555;-46
2021/09/09 06:11:27;;;;;;;12.00;9.45;;;;;;;;;;5071648;28;20090;-47
2021/09/09 06:13:53;;;;;;;16.73;9.77;;;;;;;;;;5065890;28;20095;-48
2021/09/09 06:16:20;;;;;;;22.83;14.73;;;;;;;;;;5054557;28;20087;-47
2021/09/09 06:18:47;;;;;;;15.57;10.48;;;;;;;;;;5063021;28;20503;-51
2021/09/09 06:21:14;;;;;;;15.80;9.57;;;;;;;;;;5053410;28;20498;-46
2021/09/09 06:23:41;;;;;;;15.88;9.90;;;;;;;;;;5033482;28;20476;-46
2021/09/09 06:26:17;;;;;;;11.52;8.30;;;;;;;;;;5035361;28;20045;-45
2021/09/09 06:28:44;;;;;;;15.20;9.55;;;;;;;;;;5069993;28;20044;-48
2021/09/09 06:31:11;;;;;;;14.40;9.07;;;;;;;;;;5072059;28;20561;-47
2021/09/09 06:33:38;;;;;;;13.45;8.60;;;;;;;;;;5063216;28;20041;-48
2021/09/09 06:36:04;;;;;;;18.83;9.15;;;;;;;;;;5051839;28;20044;-51
2021/09/09 06:38:32;;;;;;;11.35;8.40;;;;;;;;;;5059077;28;20086;-52
2021/09/09 06:40:58;;;;;;;16.30;8.32;;;;;;;;;;5071386;28;20072;-50
2021/09/09 06:43:25;;;;;;;13.88;9.25;;;;;;;;;;5063351;28;20498;-49
2021/09/09 06:45:52;;;;;;;13.18;8.50;;;;;;;;;;5052055;28;20479;-51
2021/09/09 06:48:19;;;;;;;10.38;7.72;;;;;;;;;;5061108;28;20090;-45
2021/09/09 06:50:46;;;;;;;14.25;8.45;;;;;;;;;;5053256;28;20079;-48
2021/09/09 06:53:13;;;;;;;11.05;8.05;;;;;;;;;;5034871;28;20041;-46
2021/09/09 06:55:40;;;;;;;10.82;7.90;;;;;;;;;;5051187;28;20174;-46
2021/09/09 06:58:07;;;;;;;16.52;8.18;;;;;;;;;;5051400;28;20043;-46
2021/09/09 07:00:34;;;;;;;13.85;8.90;;;;;;;;;;5051415;28;20047;-49
2021/09/09 07:03:01;;;;;;;12.25;8.80;;;;;;;;;;5057338;28;20052;-51
2021/09/09 07:05:28;;;;;;;16.30;9.75;;;;;;;;;;5056874;28;20065;-44
2021/09/09 07:07:56;;;;;;;10.80;7.88;;;;;;;;;;5059668;28;20032;-48
2021/09/09 07:10:24;;;;;;;11.70;7.90;;;;;;;;;;5071139;28;20037;-45
2021/09/09 07:12:51;;;;;;;14.05;7.93;;;;;;;;;;5070913;28;20037;-51
2021/09/09 07:15:18;;;;;;;12.18;8.68;;;;;;;;;;5037168;28;20045;-47
2021/09/09 07:17:45;;;;;;;12.73;7.85;;;;;;;;;;5068061;28;20057;-48
2021/09/09 07:20:12;;;;;;;12.43;7.75;;;;;;;;;;5067986;28;20036;-47
2021/09/09 07:22:39;;;;;;;11.98;8.07;;;;;;;;;;5073465;28;20462;-48
2021/09/09 07:25:06;;;;;;;10.60;7.47;;;;;;;;;;5072599;28;20135;-48
2021/09/09 07:27:33;;;;;;;9.52;7.38;;;;;;;;;;5074977;28;20047;-48
2021/09/09 07:30:00;;;;;;;9.35;7.50;;;;;;;;;;5072470;28;20140;-47
2021/09/09 07:32:27;;;;;;;8.52;6.75;;;;;;;;;;5074807;28;20049;-48
2021/09/09 07:34:54;;;;;;;9.27;7.70;;;;;;;;;;5047404;28;20068;-47
2021/09/09 07:37:20;;;;;;;10.02;7.28;;;;;;;;;;5054765;28;20072;-48
2021/09/09 07:39:47;;;;;;;9.05;6.80;;;;;;;;;;5056745;28;20082;-46
2021/09/09 07:42:14;;;;;;;10.48;7.18;;;;;;;;;;5073527;28;20044;-48
2021/09/09 07:44:41;;;;;;;9.27;7.40;;;;;;;;;;5053812;28;20132;-48
2021/09/09 07:47:08;;;;;;;10.50;6.85;;;;;;;;;;5056687;28;20072;-46
2021/09/09 07:49:35;;;;;;;36.55;8.60;;;;;;;;;;5073740;28;20041;-49
2021/09/09 07:52:02;;;;;;;15.27;7.43;;;;;;;;;;5074245;28;20059;-47
2021/09/09 07:54:29;;;;;;;12.90;6.88;;;;;;;;;;5057891;28;20060;-49
2021/09/09 07:56:56;;;;;;;8.27;6.55;;;;;;;;;;5053231;28;20127;-47
2021/09/09 07:59:24;;;;;;;8.15;6.43;;;;;;;;;;5074020;28;20069;-50
2021/09/09 08:01:51;;;;;;;7.60;6.43;;;;;;;;;;5066738;28;20040;-47
2021/09/09 08:04:18;;;;;;;8.27;6.40;;;;;;;;;;5053075;28;20049;-47
2021/09/09 08:06:45;;;;;;;9.73;6.43;;;;;;;;;;5054683;28;20082;-45
2021/09/09 08:09:12;;;;;;;8.98;6.30;;;;;;;;;;5066755;28;20203;-46
2021/09/09 08:11:39;;;;;;;9.23;6.63;;;;;;;;;;5072078;28;20052;-46
2021/09/09 08:14:06;;;;;;;7.35;6.32;;;;;;;;;;5066025;28;20079;-47
2021/09/09 08:16:33;;;;;;;11.20;6.32;;;;;;;;;;5061179;28;20041;-47
2021/09/09 08:19:00;;;;;;;9.65;6.80;;;;;;;;;;5072111;28;20048;-47
2021/09/09 08:21:26;;;;;;;10.73;6.55;;;;;;;;;;5068855;28;20039;-46
2021/09/09 08:23:53;;;;;;;10.50;6.38;;;;;;;;;;5061901;28;20052;-48
2021/09/09 08:26:20;;;;;;;9.38;5.88;;;;;;;;;;5054791;28;20135;-45
2021/09/09 08:28:47;;;;;;;9.30;5.93;;;;;;;;;;5073716;28;20047;-47
2021/09/09 08:31:13;;;;;;;9.15;5.88;;;;;;;;;;5072549;28;20072;-49
2021/09/09 08:33:42;;;;;;;9.38;6.13;;;;;;;;;;5053637;28;20053;-47
2021/09/09 08:36:10;;;;;;;12.57;7.00;;;;;;;;;;5054085;28;20041;-48
2021/09/09 08:38:36;;;;;;;9.90;5.68;;;;;;;;;;5067175;28;20072;-50
2021/09/09 08:41:03;;;;;;;7.75;5.60;;;;;;;;;;5055708;28;20135;-48
2021/09/09 08:43:31;;;;;;;8.63;6.25;;;;;;;;;;5051481;28;20141;-46
2021/09/09 08:46:02;;;;;;;8.02;5.85;;;;;;;;;;5060328;28;20043;-49
2021/09/09 08:48:29;;;;;;;10.90;6.35;;;;;;;;;;5072491;28;20093;-47
2021/09/09 08:50:57;;;;;;;8.70;5.55;;;;;;;;;;5054295;28;20070;-52
2021/09/09 08:53:24;;;;;;;7.75;5.07;;;;;;;;;;5061763;28;20064;-49
2021/09/09 08:55:51;;;;;;;7.93;5.50;;;;;;;;;;5067177;28;20124;-48
2021/09/09 08:58:19;;;;;;;7.95;5.75;;;;;;;;;;5055308;28;20056;-47
2021/09/09 09:01:05;;;;;;;8.77;5.70;;;;;;;;;;5073295;28;20050;-45
2021/09/09 09:03:52;;;;;;;7.43;5.63;;;;;;;;;;5054877;28;20065;-45
2021/09/09 09:06:25;;;;;;;8.93;5.57;;;;;;;;;;5072191;28;20059;-49
2021/09/09 09:08:56;;;;;;;13.57;5.95;;;;;;;;;;5069777;28;20036;-47
2021/09/09 09:11:24;;;;;;;7.82;5.90;;;;;;;;;;5055686;28;20045;-46
2021/09/09 09:13:51;;;;;;;10.38;5.88;;;;;;;;;;5053156;28;20072;-47
2021/09/09 09:16:20;;;;;;;9.25;5.63;;;;;;;;;;5070351;28;20087;-48
2021/09/09 09:18:47;;;;;;;7.13;5.45;;;;;;;;;;5054967;28;20051;-46
2021/09/09 09:21:15;;;;;;;7.80;5.55;;;;;;;;;;5056895;28;20098;-50
2021/09/09 09:23:45;;;;;;;7.63;5.93;;;;;;;;;;5060989;28;20053;-50
2021/09/09 09:26:24;;;;;;;8.45;5.57;;;;;;;;;;5061564;28;22084;-51
2021/09/09 09:28:52;;;;;;;10.52;5.63;;;;;;;;;;5053414;28;20121;-46
2021/09/09 09:31:24;;;;;;;8.52;5.72;;;;;;;;;;5062357;28;20048;-47
2021/09/09 09:33:54;;;;;;;7.53;5.23;;;;;;;;;;5056464;28;20460;-49
2021/09/09 09:36:22;;;;;;;11.43;6.45;;;;;;;;;;5072196;28;20124;-48
2021/09/09 09:38:50;;;;;;;8.85;5.53;;;;;;;;;;5052752;28;20064;-46
2021/09/09 09:41:18;;;;;;;6.93;5.47;;;;;;;;;;5070462;28;20474;-51
2021/09/09 09:43:56;;;;;;;8.60;5.25;;;;;;;;;;5068243;28;20135;-48
2021/09/09 09:46:23;;;;;;;8.88;6.07;;;;;;;;;;5034359;28;20049;-51
2021/09/09 09:48:50;;;;;;;9.43;5.95;;;;;;;;;;5054312;28;20102;-46
2021/09/09 09:51:37;;;;;;;6.75;5.45;;;;;;;;;;5056522;28;20108;-48
2021/09/09 09:54:08;;;;;;;7.68;6.20;;;;;;;;;;5068125;28;20037;-50
2021/09/09 09:56:35;;;;;;;9.15;6.03;;;;;;;;;;5072179;28;20052;-47
2021/09/09 09:59:03;;;;;;;9.27;6.40;;;;;;;;;;5067224;28;20041;-49
2021/09/09 10:01:30;;;;;;;8.55;6.07;;;;;;;;;;5054500;28;20521;-48
2021/09/09 10:03:57;;;;;;;9.23;5.63;;;;;;;;;;5051651;28;20044;-51
2021/09/09 10:06:41;;;;;;;7.57;5.85;;;;;;;;;;5060105;28;20085;-52
2021/09/09 10:09:10;;;;;;;7.13;5.90;;;;;;;;;;5052289;28;20139;-50
2021/09/09 10:11:37;;;;;;;7.75;5.82;;;;;;;;;;5071158;28;20550;-50
2021/09/09 10:14:04;;;;;;;8.40;5.93;;;;;;;;;;5061635;28;20033;-48
2021/09/09 10:16:41;;;;;;;8.07;6.15;;;;;;;;;;5069304;28;20477;-49
2021/09/09 10:19:12;;;;;;;8.45;5.82;;;;;;;;;;5036841;28;20055;-51
2021/09/09 10:21:46;;;;;;;7.50;6.07;;;;;;;;;;5069139;28;20126;-48
2021/09/09 10:24:17;;;;;;;8.27;6.38;;;;;;;;;;5046587;28;20504;-48
2021/09/09 10:26:45;;;;;;;6.68;5.88;;;;;;;;;;5071696;28;20036;-47
2021/09/09 10:29:43;;;;;;;9.35;6.15;;;;;;;;;;5070877;28;20043;-49
2021/09/09 10:32:30;;;;;;;8.02;5.93;;;;;;;;;;5069948;28;20047;-52
2021/09/09 10:35:15;;;;;;;9.38;6.30;;;;;;;;;;5054844;28;20136;-52
2021/09/09 10:37:45;;;;;;;8.77;5.70;;;;;;;;;;5071561;28;20040;-48
2021/09/09 10:40:30;;;;;;;9.32;6.22;;;;;;;;;;5069997;28;20177;-47
2021/09/09 10:43:10;;;;;;;9.85;6.65;;;;;;;;;;5044790;28;20041;-49
2021/09/09 10:45:39;;;;;;;7.13;5.50;;;;;;;;;;5066830;28;20127;-50
2021/09/09 10:48:15;;;;;;;8.68;5.88;;;;;;;;;;5070474;28;20147;-52
2021/09/09 10:50:56;;;;;;;8.30;5.55;;;;;;;;;;5071263;28;20037;-47
2021/09/09 10:53:42;;;;;;;10.48;5.90;;;;;;;;;;5068624;28;20106;-48
2021/09/09 10:56:16;;;;;;;6.85;5.68;;;;;;;;;;5071069;28;20090;-48
2021/09/09 10:58:43;;;;;;;6.63;5.40;;;;;;;;;;5069755;28;20050;-48
2021/09/09 11:01:10;;;;;;;8.10;5.60;;;;;;;;;;5068292;28;20054;-50
2021/09/09 11:03:39;;;;;;;8.85;6.05;;;;;;;;;;5068630;28;20048;-50
2021/09/09 11:06:06;;;;;;;8.88;5.28;;;;;;;;;;5052113;28;20069;-49
2021/09/09 11:08:33;;;;;;;9.32;5.65;;;;;;;;;;5063588;28;20128;-48
2021/09/09 11:11:00;;;;;;;7.90;5.32;;;;;;;;;;5067797;28;20106;-47
2021/09/09 11:13:29;;;;;;;8.15;5.65;;;;;;;;;;5054782;28;20045;-48
2021/09/09 11:15:56;;;;;;;8.23;5.80;;;;;;;;;;5067523;28;20143;-47
2021/09/09 11:18:30;;;;;;;6.88;5.50;;;;;;;;;;5071421;28;20040;-49
2021/09/09 11:21:04;;;;;;;10.48;6.63;;;;;;;;;;5054855;28;20060;-49
2021/09/09 11:23:31;;;;;;;7.07;5.32;;;;;;;;;;5064751;22;20076;-51
2021/09/09 11:26:08;;;;;;;6.30;5.18;;;;;;;;;;5050282;28;20131;-47
2021/09/09 11:28:35;;;;;;;10.18;5.32;;;;;;;;;;5068824;28;20123;-49
2021/09/09 11:31:05;;;;;;;6.00;5.40;;;;;;;;;;5069077;28;20398;-50
2021/09/09 11:33:31;;;;;;;6.50;5.55;;;;;;;;;;5051010;28;20129;-49
2021/09/09 11:36:02;;;;;;;7.93;5.20;;;;;;;;;;5067857;28;20044;-46
2021/09/09 11:38:30;;;;;;;6.97;4.78;;;;;;;;;;5068994;28;20063;-49
2021/09/09 11:41:10;;;;;;;5.97;5.28;;;;;;;;;;5069730;28;20154;-45
2021/09/09 11:43:38;;;;;;;9.43;5.65;;;;;;;;;;5059350;28;20065;-45
2021/09/09 11:46:05;;;;;;;6.75;5.15;;;;;;;;;;5062598;28;20375;-46
2021/09/09 11:48:33;;;;;;;7.32;5.05;;;;;;;;;;5069827;28;20041;-47
2021/09/09 11:51:00;;;;;;;7.25;4.85;;;;;;;;;;5067301;28;20482;-48
2021/09/09 11:53:26;;;;;;;6.82;5.70;;;;;;;;;;5050801;28;20490;-46
2021/09/09 11:55:54;;;;;;;11.27;5.63;;;;;;;;;;5058415;28;20055;-47
2021/09/09 11:58:38;;;;;;;7.20;5.18;;;;;;;;;;5069810;28;20052;-45
2021/09/09 12:01:05;;;;;;;8.05;5.03;;;;;;;;;;5048394;28;20048;-48
2021/09/09 12:03:34;;;;;;;9.00;5.30;;;;;;;;;;5072484;28;20055;-46
2021/09/09 12:06:01;;;;;;;6.15;5.45;;;;;;;;;;5055121;28;20041;-46
2021/09/09 12:08:28;;;;;;;6.93;5.30;;;;;;;;;;5053356;28;20055;-44
2021/09/09 12:11:08;;;;;;;7.22;5.30;;;;;;;;;;5053374;28;20043;-46
2021/09/09 12:13:35;;;;;;;6.65;5.45;;;;;;;;;;5054358;28;20097;-46
2021/09/09 12:16:12;;;;;;;8.27;5.20;;;;;;;;;;5053278;28;20207;-44
2021/09/09 12:18:40;;;;;;;7.30;5.22;;;;;;;;;;5053167;28;20107;-44
2021/09/09 12:21:12;;;;;;;8.40;4.97;;;;;;;;;;5052882;28;20573;-45
2021/09/09 12:23:54;;;;;;;6.72;5.25;;;;;;;;;;5052098;28;20068;-44
2021/09/09 12:26:21;;;;;;;7.75;4.93;;;;;;;;;;5055149;28;20434;-46
2021/09/09 12:28:48;;;;;;;6.03;5.10;;;;;;;;;;5062738;28;20041;-48
2021/09/09 12:31:28;;;;;;;7.18;5.25;;;;;;;;;;5052604;28;20087;-47
2021/09/09 12:33:55;;;;;;;8.80;5.47;;;;;;;;;;5051814;28;20041;-47
2021/09/09 12:36:23;;;;;;;8.40;4.30;;;;;;;;;;5052718;28;20128;-47
2021/09/09 12:38:50;;;;;;;5.82;4.38;;;;;;;;;;5052597;28;20041;-46
2021/09/09 12:41:17;;;;;;;7.32;4.40;;;;;;;;;;5052610;28;20075;-51
2021/09/09 12:43:51;;;;;;;6.93;4.40;;;;;;;;;;5057454;28;20079;-47
2021/09/09 12:46:37;;;;;;;9.07;4.68;;;;;;;;;;5052255;28;20132;-48
2021/09/09 12:49:05;;;;;;;7.22;4.45;;;;;;;;;;5052463;28;20037;-47
2021/09/09 12:51:37;;;;;;;8.25;4.13;;;;;;;;;;5052205;28;20041;-51
2021/09/09 12:54:04;;;;;;;6.28;4.45;;;;;;;;;;5051578;28;20045;-47
2021/09/09 12:56:31;;;;;;;7.93;4.38;;;;;;;;;;5052368;28;20049;-46
2021/09/09 12:58:57;;;;;;;7.63;4.15;;;;;;;;;;5061195;28;20071;-49
2021/09/09 13:01:26;;;;;;;5.50;4.45;;;;;;;;;;5065106;28;20762;-49
2021/09/09 13:03:53;;;;;;;9.65;4.40;;;;;;;;;;5069531;28;20115;-48
2021/09/09 13:06:20;;;;;;;9.38;4.55;;;;;;;;;;5059744;28;20132;-46
2021/09/09 13:08:47;;;;;;;9.73;4.47;;;;;;;;;;5069289;28;20043;-47
2021/09/09 13:11:13;;;;;;;5.85;3.78;;;;;;;;;;5052584;28;20045;-48
2021/09/09 13:13:40;;;;;;;4.93;3.78;;;;;;;;;;5065576;28;20053;-47
2021/09/09 13:16:08;;;;;;;6.85;3.65;;;;;;;;;;5065369;28;20804;-49
2021/09/09 13:18:39;;;;;;;11.27;3.67;;;;;;;;;;5056905;28;20067;-47
2021/09/09 13:21:10;;;;;;;5.57;3.47;;;;;;;;;;5070742;28;20040;-47
2021/09/09 13:23:37;;;;;;;4.65;3.60;;;;;;;;;;5064691;28;20052;-47
2021/09/09 13:26:04;;;;;;;10.63;4.35;;;;;;;;;;5068095;28;20047;-46
2021/09/09 13:28:31;;;;;;;7.35;3.53;;;;;;;;;;5071962;28;20416;-46
2021/09/09 13:30:57;;;;;;;7.65;4.15;;;;;;;;;;5068934;28;20036;-48
2021/09/09 13:33:24;;;;;;;9.05;4.20;;;;;;;;;;5068009;28;20385;-49
2021/09/09 13:35:52;;;;;;;5.80;3.88;;;;;;;;;;5054809;28;20079;-47
2021/09/09 13:38:18;;;;;;;5.80;4.30;;;;;;;;;;5064471;28;20132;-47
2021/09/09 13:40:45;;;;;;;7.60;4.30;;;;;;;;;;5070923;28;20335;-47
2021/09/09 13:43:12;;;;;;;4.65;3.80;;;;;;;;;;5069163;28;20056;-47
2021/09/09 13:45:39;;;;;;;6.80;4.10;;;;;;;;;;5051571;28;20127;-46
2021/09/09 13:48:05;;;;;;;5.63;4.45;;;;;;;;;;5069400;28;20042;-49
2021/09/09 13:50:32;;;;;;;6.93;3.88;;;;;;;;;;5054020;28;20044;-48
2021/09/09 13:52:59;;;;;;;7.47;4.43;;;;;;;;;;5069024;28;20112;-47
2021/09/09 13:55:26;;;;;;;5.80;3.92;;;;;;;;;;5069993;28;20068;-47
2021/09/09 13:57:53;;;;;;;6.10;4.10;;;;;;;;;;5069292;28;20113;-46
2021/09/09 14:00:20;;;;;;;7.30;4.03;;;;;;;;;;5065258;28;20137;-46
2021/09/09 14:02:47;;;;;;;6.78;3.92;;;;;;;;;;5057908;28;20079;-47
2021/09/09 14:05:18;;;;;;;6.85;4.10;;;;;;;;;;5051195;28;20123;-50
2021/09/09 14:07:45;;;;;;;5.53;4.47;;;;;;;;;;5071193;28;20082;-51
2021/09/09 14:10:16;;;;;;;7.28;5.18;;;;;;;;;;5071472;28;20051;-47
2021/09/09 14:12:43;;;;;;;5.03;3.90;;;;;;;;;;5062216;28;20041;-47
2021/09/09 14:15:12;;;;;;;6.80;4.20;;;;;;;;;;5050957;28;20123;-48
2021/09/09 14:17:39;;;;;;;5.88;4.75;;;;;;;;;;5057210;28;20061;-46
2021/09/09 14:20:06;;;;;;;6.97;4.45;;;;;;;;;;5063289;28;20044;-48
2021/09/09 14:22:34;;;;;;;8.02;4.35;;;;;;;;;;5059831;28;20131;-47
2021/09/09 14:25:01;;;;;;;6.60;4.03;;;;;;;;;;5063084;28;20044;-50
2021/09/09 14:27:28;;;;;;;7.68;4.28;;;;;;;;;;5059463;28;20039;-48
2021/09/09 14:29:55;;;;;;;9.32;4.18;;;;;;;;;;5063361;28;20487;-50
2021/09/09 14:32:21;;;;;;;6.38;3.92;;;;;;;;;;5067331;28;20071;-49
2021/09/09 14:34:50;;;;;;;7.97;4.63;;;;;;;;;;5050161;28;20041;-49
2021/09/09 14:37:17;;;;;;;8.88;4.65;;;;;;;;;;5057466;28;20090;-49